createdAt,value
2023-07-10T00:00:22.062Z,1.50
2023-07-10T00:02:50.137Z,1.85
2023-07-10T00:05:19.232Z,1.50
2023-07-10T00:07:46.802Z,1.90
2023-07-10T00:10:15.792Z,1.58
2023-07-10T00:12:44.437Z,1.73
2023-07-10T00:15:17.313Z,1.90
2023-07-10T00:17:46.427Z,1.92
2023-07-10T00:20:15.805Z,1.47
2023-07-10T00:22:42.355Z,1.48
2023-07-10T00:25:10.137Z,1.55
2023-07-10T00:27:36.700Z,1.70
2023-07-10T00:30:04.197Z,1.52
2023-07-10T00:32:30.982Z,1.63
2023-07-10T00:34:57.576Z,1.73
2023-07-10T00:37:24.110Z,2.05
2023-07-10T00:39:50.660Z,1.25
2023-07-10T00:42:23.331Z,1.58
2023-07-10T00:44:57.494Z,1.40
2023-07-10T00:47:33.879Z,1.35
2023-07-10T00:50:06.706Z,1.45
2023-07-10T00:52:38.642Z,1.38
2023-07-10T00:55:30.028Z,1.23
2023-07-10T00:58:30.260Z,1.20
2023-07-10T01:01:09.851Z,1.33
2023-07-10T01:03:37.900Z,1.50
2023-07-10T01:06:10.183Z,1.67
2023-07-10T01:08:40.643Z,1.42
2023-07-10T01:11:07.580Z,1.50
2023-07-10T01:13:35.633Z,1.95
2023-07-10T01:16:02.741Z,1.65
2023-07-10T01:18:30.179Z,1.58
2023-07-10T01:21:26.952Z,1.42
2023-07-10T01:23:54.921Z,1.83
2023-07-10T01:26:21.662Z,1.50
2023-07-10T01:28:48.424Z,1.80
2023-07-10T01:31:18.654Z,1.80
2023-07-10T01:33:51.651Z,1.80
2023-07-10T01:36:20.377Z,3.07
2023-07-10T01:38:51.733Z,2.15
2023-07-10T01:41:38.090Z,2.35
2023-07-10T01:44:27.684Z,2.25
2023-07-10T01:46:55.725Z,2.42
2023-07-10T01:49:52.084Z,2.57
2023-07-10T01:52:20.779Z,2.17
2023-07-10T01:54:47.505Z,2.38
2023-07-10T01:57:16.321Z,2.25
2023-07-10T01:59:43.209Z,2.53
2023-07-10T02:02:10.334Z,2.23
2023-07-10T02:04:37.440Z,2.40
2023-07-10T02:07:04.246Z,2.58
2023-07-10T02:09:32.887Z,2.10
2023-07-10T02:12:00.599Z,2.35
2023-07-10T02:14:27.716Z,2.63
2023-07-10T02:16:54.326Z,2.30
2023-07-10T02:19:21.780Z,2.45
2023-07-10T02:21:48.699Z,2.90
2023-07-10T02:24:15.893Z,2.53
2023-07-10T02:26:42.577Z,2.43
2023-07-10T02:29:09.837Z,2.40
2023-07-10T02:31:36.663Z,2.40
2023-07-10T02:34:03.372Z,2.00
2023-07-10T02:36:30.370Z,2.47
2023-07-10T02:38:57.695Z,2.33
2023-07-10T02:41:24.580Z,1.80
2023-07-10T02:43:51.394Z,1.92
2023-07-10T02:46:18.027Z,1.83
2023-07-10T02:48:44.700Z,1.50
2023-07-10T02:51:11.350Z,2.30
2023-07-10T02:53:38.689Z,1.73
2023-07-10T02:56:05.520Z,2.10
2023-07-10T02:58:32.269Z,1.60
2023-07-10T03:01:01.340Z,1.80
2023-07-10T03:03:28.377Z,1.70
2023-07-10T03:05:57.388Z,2.20
2023-07-10T03:08:24.184Z,1.90
2023-07-10T03:11:02.316Z,2.25
2023-07-10T03:13:28.865Z,1.77
2023-07-10T03:16:04.421Z,1.97
2023-07-10T03:18:31.709Z,2.20
2023-07-10T03:20:58.184Z,2.42
2023-07-10T03:23:24.862Z,2.40
2023-07-10T03:25:51.757Z,2.35
2023-07-10T03:28:18.279Z,1.80
2023-07-10T03:30:45.383Z,2.20
2023-07-10T03:33:14.502Z,2.08
2023-07-10T03:35:41.601Z,1.90
2023-07-10T03:38:09.010Z,2.10
2023-07-10T03:40:36.010Z,1.70
2023-07-10T03:43:02.497Z,1.92
2023-07-10T03:45:31.533Z,2.00
2023-07-10T03:47:58.180Z,1.80
2023-07-10T03:50:24.950Z,1.73
2023-07-10T03:52:51.425Z,1.87
2023-07-10T03:55:17.942Z,1.50
2023-07-10T03:57:44.477Z,2.05
2023-07-10T04:00:11.601Z,2.13
2023-07-10T04:02:38.240Z,2.17
2023-07-10T04:05:05.233Z,2.13
2023-07-10T04:07:31.783Z,2.30
2023-07-10T04:09:58.267Z,2.55
2023-07-10T04:12:26.825Z,2.28
2023-07-10T04:14:54.789Z,2.30
2023-07-10T04:17:21.480Z,2.30
2023-07-10T04:19:48.125Z,2.60
2023-07-10T04:22:14.724Z,2.15
2023-07-10T04:24:41.467Z,2.10
2023-07-10T04:27:08.358Z,2.50
2023-07-10T04:29:35.029Z,2.70
2023-07-10T04:32:01.588Z,2.25
2023-07-10T04:34:28.160Z,2.38
2023-07-10T04:36:54.731Z,2.72
2023-07-10T04:39:21.531Z,2.60
2023-07-10T04:41:48.127Z,2.87
2023-07-10T04:44:14.888Z,2.92
2023-07-10T04:46:42.674Z,2.63
2023-07-10T04:49:09.415Z,2.95
2023-07-10T04:51:36.000Z,3.03
2023-07-10T04:54:02.545Z,3.77
2023-07-10T04:56:29.098Z,2.75
2023-07-10T04:58:57.791Z,2.90
2023-07-10T05:01:28.044Z,3.42
2023-07-10T05:03:54.957Z,2.78
2023-07-10T05:06:22.017Z,3.37
2023-07-10T05:08:48.745Z,3.35
2023-07-10T05:11:16.060Z,3.72
2023-07-10T05:13:42.629Z,2.97
2023-07-10T05:16:09.798Z,3.22
2023-07-10T05:18:36.370Z,2.50
2023-07-10T05:21:04.328Z,3.00
2023-07-10T05:23:31.422Z,2.60
2023-07-10T05:26:13.930Z,2.50
2023-07-10T05:28:40.785Z,2.38
2023-07-10T05:31:09.206Z,2.17
2023-07-10T05:33:37.257Z,2.05
2023-07-10T05:36:06.674Z,2.13
2023-07-10T05:38:35.509Z,1.88
2023-07-10T05:41:03.018Z,1.85
2023-07-10T05:43:30.716Z,1.83
2023-07-10T05:45:57.754Z,1.70
2023-07-10T05:48:24.351Z,1.80
2023-07-10T05:50:51.497Z,1.67
2023-07-10T05:53:19.105Z,2.20
2023-07-10T05:55:51.082Z,1.50
2023-07-10T05:58:19.476Z,1.33
2023-07-10T06:00:48.309Z,0.95
2023-07-10T06:03:15.360Z,1.52
2023-07-10T06:05:42.153Z,1.40
2023-07-10T06:08:10.344Z,1.43
2023-07-10T06:10:36.964Z,1.20
2023-07-10T06:13:03.603Z,1.20
2023-07-10T06:15:31.374Z,1.40
2023-07-10T06:17:57.932Z,1.60
2023-07-10T06:20:24.519Z,1.20
2023-07-10T06:22:51.010Z,1.75
2023-07-10T06:25:17.720Z,1.55
2023-07-10T06:27:44.340Z,1.30
2023-07-10T06:30:12.344Z,1.23
2023-07-10T06:32:38.893Z,1.33
2023-07-10T06:35:07.128Z,1.20
2023-07-10T06:37:34.154Z,1.40
2023-07-10T06:40:05.781Z,1.33
2023-07-10T06:42:32.414Z,1.50
2023-07-10T06:44:59.016Z,1.40
2023-07-10T06:47:25.783Z,1.40
2023-07-10T06:49:52.331Z,1.92
2023-07-10T06:52:19.087Z,1.50
2023-07-10T06:54:45.701Z,1.40
2023-07-10T06:57:12.276Z,1.10
2023-07-10T06:59:38.771Z,1.33
2023-07-10T07:02:07.640Z,1.30
2023-07-10T07:04:34.340Z,1.20
2023-07-10T07:07:00.879Z,1.38
2023-07-10T07:09:27.358Z,1.40
2023-07-10T07:11:53.956Z,1.50
2023-07-10T07:14:20.449Z,1.40
2023-07-10T07:16:47.047Z,1.35
2023-07-10T07:19:13.727Z,1.40
2023-07-10T07:21:40.261Z,1.33
2023-07-10T07:24:06.911Z,1.15
2023-07-10T07:26:33.417Z,1.60
2023-07-10T07:28:59.892Z,1.48
2023-07-10T07:31:26.544Z,1.50
2023-07-10T07:33:53.381Z,1.57
2023-07-10T07:36:20.165Z,1.27
2023-07-10T07:38:46.701Z,1.40
2023-07-10T07:41:14.185Z,1.13
2023-07-10T07:43:40.716Z,1.20
2023-07-10T07:46:07.588Z,1.10
2023-07-10T07:48:34.485Z,1.13
2023-07-10T07:51:04.284Z,2.00
2023-07-10T07:53:34.674Z,1.48
2023-07-10T07:56:01.548Z,1.40
2023-07-10T07:58:30.069Z,1.30
2023-07-10T08:00:56.904Z,1.05
2023-07-10T08:03:23.568Z,1.50
2023-07-10T08:05:50.299Z,1.27
2023-07-10T08:08:16.963Z,1.35
2023-07-10T08:10:47.275Z,1.27
2023-07-10T08:13:15.571Z,1.67
2023-07-10T08:15:42.738Z,1.23
2023-07-10T08:18:10.074Z,1.35
2023-07-10T08:20:37.453Z,1.35
2023-07-10T08:23:05.585Z,1.37
2023-07-10T08:25:32.434Z,1.75
2023-07-10T08:27:59.678Z,1.38
2023-07-10T08:30:27.217Z,1.17
2023-07-10T08:32:54.200Z,1.20
2023-07-10T08:35:20.743Z,1.20
2023-07-10T08:37:48.630Z,1.50
2023-07-10T08:40:27.621Z,1.20
2023-07-10T08:42:54.176Z,1.33
2023-07-10T08:45:35.349Z,1.08
2023-07-10T08:48:36.262Z,1.33
2023-07-10T08:51:16.339Z,1.38
2023-07-10T08:53:46.226Z,1.27
2023-07-10T08:56:35.450Z,1.13
2023-07-10T08:59:34.819Z,1.30
2023-07-10T09:02:01.865Z,2.67
2023-07-10T09:04:31.568Z,1.30
2023-07-10T09:07:02.884Z,1.40
2023-07-10T09:09:40.217Z,0.90
2023-07-10T09:12:15.322Z,1.15
2023-07-10T09:14:55.493Z,1.57
2023-07-10T09:17:48.119Z,1.13
2023-07-10T09:20:15.628Z,1.20
2023-07-10T09:23:11.733Z,1.05
2023-07-10T09:25:38.753Z,1.83
2023-07-10T09:28:05.410Z,1.30
2023-07-10T09:30:53.037Z,0.93
2023-07-10T09:33:21.306Z,1.20
2023-07-10T09:35:49.186Z,1.10
2023-07-10T09:38:19.574Z,1.23
2023-07-10T09:40:51.502Z,1.30
2023-07-10T09:43:22.212Z,1.10
2023-07-10T09:45:51.694Z,1.33
2023-07-10T09:48:32.739Z,1.20
2023-07-10T09:51:03.334Z,1.40
2023-07-10T09:53:46.423Z,1.10
2023-07-10T09:56:37.003Z,1.50
2023-07-10T09:59:20.589Z,1.27
2023-07-10T10:01:49.383Z,1.25
2023-07-10T10:04:31.038Z,1.17
2023-07-10T10:07:03.066Z,1.03
2023-07-10T10:09:30.954Z,1.27
2023-07-10T10:12:04.315Z,1.00
2023-07-10T10:14:57.524Z,1.20
2023-07-10T10:17:26.909Z,1.30
2023-07-10T10:20:30.744Z,1.33
2023-07-10T10:22:57.320Z,1.00
2023-07-10T10:25:33.524Z,1.00
2023-07-10T10:28:33.039Z,1.00
2023-07-10T10:31:07.981Z,0.90
2023-07-10T10:33:39.572Z,1.00
2023-07-10T10:36:23.978Z,0.90
2023-07-10T10:39:23.745Z,0.95
2023-07-10T10:41:56.431Z,0.90
2023-07-10T10:44:41.956Z,1.10
2023-07-10T10:47:31.308Z,1.00
2023-07-10T10:50:00.414Z,0.98
2023-07-10T10:52:33.017Z,1.20
2023-07-10T10:55:30.229Z,0.82
2023-07-10T10:58:14.544Z,0.90
2023-07-10T11:01:20.108Z,1.13
2023-07-10T11:03:51.422Z,1.05
2023-07-10T11:06:27.015Z,1.00
2023-07-10T11:08:57.412Z,1.00
2023-07-10T11:11:31.028Z,1.63
2023-07-10T11:14:00.434Z,1.17
2023-07-10T11:16:31.374Z,0.98
2023-07-10T11:19:00.277Z,1.30
2023-07-10T11:21:26.940Z,1.15
2023-07-10T11:23:53.665Z,1.10
2023-07-10T11:26:29.530Z,1.23
2023-07-10T11:29:07.501Z,1.77
2023-07-10T11:31:35.303Z,1.20
2023-07-10T11:34:08.309Z,1.33
2023-07-10T11:36:34.942Z,1.20
2023-07-10T11:39:07.196Z,1.40
2023-07-10T11:41:38.152Z,1.40
2023-07-10T11:44:22.853Z,1.30
2023-07-10T11:46:58.664Z,1.55
2023-07-10T11:49:27.805Z,1.60
2023-07-10T11:52:15.663Z,1.00
2023-07-10T11:54:48.357Z,2.00
2023-07-10T11:57:17.227Z,1.55
2023-07-10T11:59:49.185Z,2.03
2023-07-10T12:02:21.489Z,1.80
2023-07-10T12:04:47.988Z,1.77
2023-07-10T12:07:14.529Z,1.85
2023-07-10T12:09:41.010Z,1.15
2023-07-10T12:12:14.628Z,1.55
2023-07-10T12:14:41.533Z,1.35
2023-07-10T12:19:48.645Z,1.42
2023-07-10T12:22:24.230Z,1.88
2023-07-10T12:24:54.170Z,1.23
2023-07-10T12:29:53.607Z,1.57
2023-07-10T12:32:22.620Z,1.60
2023-07-10T12:34:49.509Z,1.95
2023-07-10T12:37:18.092Z,1.45
2023-07-10T12:39:52.786Z,1.40
2023-07-10T12:42:32.852Z,1.30
2023-07-10T12:45:05.833Z,1.60
2023-07-10T12:47:45.247Z,1.05
2023-07-10T12:50:16.099Z,1.05
2023-07-10T12:52:43.674Z,1.17
2023-07-10T12:55:18.186Z,1.50
2023-07-10T12:57:44.864Z,1.40
2023-07-10T13:00:12.347Z,1.40
2023-07-10T13:02:47.488Z,1.20
2023-07-10T13:05:30.027Z,1.33
2023-07-10T13:07:59.235Z,1.40
2023-07-10T13:10:39.990Z,1.52
2023-07-10T13:13:14.889Z,1.50
2023-07-10T13:15:41.544Z,1.17
2023-07-10T13:18:25.627Z,1.30
2023-07-10T13:20:52.349Z,0.93
2023-07-10T13:23:18.905Z,1.27
2023-07-10T13:25:45.776Z,1.10
2023-07-10T13:28:39.663Z,1.35
2023-07-10T13:31:11.820Z,1.20
2023-07-10T13:33:38.376Z,1.47
2023-07-10T13:36:13.331Z,1.20
2023-07-10T13:38:39.898Z,1.52
2023-07-10T13:41:06.433Z,1.38
2023-07-10T13:43:33.074Z,1.48
2023-07-10T13:46:05.994Z,1.10
2023-07-10T13:48:32.653Z,1.10
2023-07-10T13:50:59.134Z,1.48
2023-07-10T13:53:26.141Z,1.70
2023-07-10T13:55:53.136Z,1.10
2023-07-10T13:58:22.551Z,1.47
2023-07-10T14:00:51.271Z,1.20
2023-07-10T14:03:19.478Z,1.15
2023-07-10T14:05:48.411Z,1.60
2023-07-10T14:08:31.877Z,1.63
2023-07-10T14:11:00.571Z,1.20
2023-07-10T14:13:27.345Z,1.60
2023-07-10T14:16:07.152Z,1.60
2023-07-10T14:18:34.202Z,1.38
2023-07-10T14:21:04.121Z,1.30
2023-07-10T14:23:30.914Z,1.30
2023-07-10T14:25:57.761Z,1.15
2023-07-10T14:28:26.180Z,1.30
2023-07-10T14:30:53.667Z,1.42
2023-07-10T14:33:20.778Z,1.50
2023-07-10T14:35:53.215Z,1.10
2023-07-10T14:38:28.699Z,1.20
2023-07-10T14:40:56.629Z,1.35
2023-07-10T14:43:23.615Z,1.35
2023-07-10T14:45:54.972Z,1.20
2023-07-10T14:48:22.586Z,1.50
2023-07-10T14:50:50.297Z,1.27
2023-07-10T14:53:19.375Z,1.30
2023-07-10T14:55:48.177Z,1.50
2023-07-10T14:58:26.071Z,1.30
2023-07-10T15:00:54.339Z,1.60
2023-07-10T15:03:21.651Z,1.38
2023-07-10T15:05:51.014Z,1.40
2023-07-10T15:08:29.819Z,1.30
2023-07-10T15:10:57.479Z,1.27
2023-07-10T15:13:26.262Z,1.23
2023-07-10T15:15:53.246Z,1.05
2023-07-10T15:18:24.330Z,1.30
2023-07-10T15:20:50.947Z,1.20
2023-07-10T15:23:31.619Z,1.40
2023-07-10T15:26:04.837Z,1.20
2023-07-10T15:28:32.463Z,1.42
2023-07-10T15:31:02.466Z,1.20
2023-07-10T15:33:34.883Z,1.40
2023-07-10T15:36:02.299Z,1.30
2023-07-10T15:38:29.313Z,1.13
2023-07-10T15:40:58.812Z,1.20
2023-07-10T15:43:28.268Z,1.30
2023-07-10T15:45:56.199Z,1.33
2023-07-10T15:48:23.386Z,1.40
2023-07-10T15:50:51.033Z,1.50
2023-07-10T15:53:20.203Z,0.98
2023-07-10T15:55:47.290Z,1.35
2023-07-10T15:58:19.363Z,1.38
2023-07-10T16:00:49.649Z,1.40
2023-07-10T16:03:25.615Z,1.30
2023-07-10T16:05:54.900Z,1.30
2023-07-10T16:08:24.847Z,1.38
2023-07-10T16:10:59.189Z,1.30
2023-07-10T16:13:28.394Z,1.52
2023-07-10T16:15:54.978Z,1.80
2023-07-10T16:18:30.380Z,1.65
2023-07-10T16:20:59.293Z,2.75
2023-07-10T16:23:35.362Z,1.80
2023-07-10T16:26:02.452Z,1.48
2023-07-10T16:28:30.259Z,1.40
2023-07-10T16:30:57.298Z,1.50
2023-07-10T16:33:27.655Z,1.40
2023-07-10T16:35:54.948Z,1.67
2023-07-10T16:38:24.490Z,1.50
2023-07-10T16:40:54.027Z,1.20
2023-07-10T16:43:28.165Z,1.55
2023-07-10T16:45:54.652Z,1.73
2023-07-10T16:48:25.199Z,1.60
2023-07-10T16:50:55.949Z,1.40
2023-07-10T16:53:32.759Z,2.00
2023-07-10T16:56:01.932Z,1.70
2023-07-10T16:58:33.759Z,1.77
2023-07-10T17:01:00.824Z,1.80
2023-07-10T17:03:32.708Z,1.92
2023-07-10T17:06:01.018Z,1.90
2023-07-10T17:08:29.667Z,2.00
2023-07-10T17:10:58.266Z,1.90
2023-07-10T17:13:27.928Z,2.20
2023-07-10T17:15:56.824Z,2.08
2023-07-10T17:18:29.053Z,1.93
2023-07-10T17:20:58.926Z,2.00
2023-07-10T17:23:29.618Z,1.90
2023-07-10T17:25:56.843Z,2.13
2023-07-10T17:28:26.274Z,2.28
2023-07-10T17:30:54.395Z,2.10
2023-07-10T17:33:36.293Z,2.63
2023-07-10T17:36:04.729Z,2.08
2023-07-10T17:38:33.744Z,2.20
2023-07-10T17:41:01.323Z,2.15
2023-07-10T17:43:32.077Z,2.47
2023-07-10T17:46:02.856Z,1.75
2023-07-10T17:48:30.422Z,1.80
2023-07-10T17:51:10.031Z,1.70
2023-07-10T17:53:39.561Z,2.00
2023-07-10T17:56:07.127Z,2.00
2023-07-10T17:58:33.684Z,2.00
2023-07-10T18:01:00.497Z,2.08
2023-07-10T18:03:30.265Z,2.70
2023-07-10T18:05:58.074Z,1.73
2023-07-10T18:08:28.207Z,1.60
2023-07-10T18:11:02.798Z,1.83
2023-07-10T18:13:37.172Z,1.92
2023-07-10T18:16:06.614Z,1.70
2023-07-10T18:18:35.243Z,1.65
2023-07-10T18:21:18.445Z,1.60
2023-07-10T18:23:45.303Z,1.38
2023-07-10T18:26:11.919Z,1.30
2023-07-10T18:28:38.522Z,1.20
2023-07-10T18:31:20.079Z,1.35
2023-07-10T18:33:46.883Z,1.10
2023-07-10T18:36:14.744Z,1.35
2023-07-10T18:38:41.550Z,1.30
2023-07-10T18:41:17.675Z,1.30
2023-07-10T18:43:45.752Z,1.40
2023-07-10T18:46:20.840Z,1.23
2023-07-10T18:48:47.503Z,1.20
2023-07-10T18:51:24.401Z,2.08
2023-07-10T18:53:52.759Z,1.85
2023-07-10T18:56:20.005Z,1.17
2023-07-10T18:58:48.299Z,1.03
2023-07-10T19:01:16.480Z,1.40
2023-07-10T19:03:44.712Z,1.10
2023-07-10T19:06:19.979Z,1.10
2023-07-10T19:08:46.878Z,1.20
2023-07-10T19:11:15.362Z,1.20
2023-07-10T19:13:45.197Z,1.33
2023-07-10T19:16:23.287Z,1.27
2023-07-10T19:18:55.462Z,1.02
2023-07-10T19:21:22.349Z,1.40
2023-07-10T19:23:49.219Z,1.40
2023-07-10T19:26:15.775Z,1.08
2023-07-10T19:28:44.176Z,1.38
2023-07-10T19:31:13.353Z,1.13
2023-07-10T19:33:43.150Z,0.98
2023-07-10T19:36:14.632Z,0.90
2023-07-10T19:38:42.576Z,1.15
2023-07-10T19:41:10.881Z,0.70
2023-07-10T19:43:37.591Z,0.95
2023-07-10T19:46:05.110Z,0.80
2023-07-10T19:48:35.489Z,0.87
2023-07-10T19:51:02.992Z,0.80
2023-07-10T19:53:31.610Z,0.90
2023-07-10T19:56:01.438Z,0.90
2023-07-10T19:58:30.617Z,0.65
2023-07-10T20:01:01.317Z,0.70
2023-07-10T20:03:30.971Z,0.63
2023-07-10T20:05:58.051Z,1.00
2023-07-10T20:08:29.974Z,0.77
2023-07-10T20:10:57.363Z,0.80
2023-07-10T20:13:27.345Z,0.77
2023-07-10T20:16:03.660Z,0.90
2023-07-10T20:18:33.816Z,0.90
2023-07-10T20:21:01.304Z,0.70
2023-07-10T20:23:28.829Z,0.82
2023-07-10T20:26:05.462Z,0.90
2023-07-10T20:28:37.563Z,1.00
2023-07-10T20:31:05.048Z,0.90
2023-07-10T20:33:34.773Z,0.90
2023-07-10T20:36:04.200Z,0.95
2023-07-10T20:38:39.510Z,0.87
2023-07-10T20:41:06.800Z,0.80
2023-07-10T20:43:34.096Z,0.77
2023-07-10T20:46:10.662Z,1.25
2023-07-10T20:48:37.354Z,1.10
2023-07-10T20:51:07.297Z,1.00
2023-07-10T20:53:33.879Z,0.60
2023-07-10T20:56:21.854Z,1.17
2023-07-10T20:58:48.355Z,1.08
2023-07-10T21:01:28.644Z,1.10
2023-07-10T21:03:56.572Z,1.17
2023-07-10T21:06:35.421Z,1.00
2023-07-10T21:09:11.849Z,1.35
2023-07-10T21:11:38.391Z,1.58
2023-07-10T21:14:11.050Z,1.60
2023-07-10T21:16:37.905Z,1.40
2023-07-10T21:19:25.731Z,1.40
2023-07-10T21:21:52.615Z,1.42
2023-07-10T21:24:21.154Z,0.93
2023-07-10T21:26:56.231Z,1.75
2023-07-10T21:29:23.598Z,1.13
2023-07-10T21:31:51.622Z,1.02
2023-07-10T21:34:19.391Z,1.30
2023-07-10T21:36:45.933Z,0.93
2023-07-10T21:39:12.405Z,1.20
2023-07-10T21:41:43.065Z,1.10
2023-07-10T21:44:22.560Z,1.02
2023-07-10T21:46:49.981Z,1.27
2023-07-10T21:49:17.104Z,1.02
2023-07-10T21:51:44.328Z,1.20
2023-07-10T21:54:12.254Z,0.83
2023-07-10T21:56:41.998Z,0.90
2023-07-10T21:59:18.343Z,1.23
2023-07-10T22:01:45.838Z,1.13
2023-07-10T22:04:12.529Z,1.20
2023-07-10T22:06:46.634Z,1.27
2023-07-10T22:09:14.643Z,1.20
2023-07-10T22:11:42.575Z,1.02
2023-07-10T22:14:17.232Z,1.13
2023-07-10T22:16:44.853Z,1.20
2023-07-10T22:19:13.354Z,1.27
2023-07-10T22:21:40.717Z,1.88
2023-07-10T22:24:13.194Z,1.30
2023-07-10T22:26:41.375Z,1.40
2023-07-10T22:29:07.960Z,1.10
2023-07-10T22:31:34.583Z,1.33
2023-07-10T22:34:01.214Z,1.30
2023-07-10T22:36:27.988Z,1.20
2023-07-10T22:38:54.618Z,1.20
2023-07-10T22:41:47.680Z,1.45
2023-07-10T22:44:17.073Z,1.20
2023-07-10T22:46:45.531Z,1.15
2023-07-10T22:49:17.015Z,1.85
2023-07-10T22:51:43.951Z,1.20
2023-07-10T22:54:13.378Z,1.65
2023-07-10T22:56:42.066Z,1.20
2023-07-10T22:59:16.811Z,1.30
2023-07-10T23:01:44.575Z,1.35
2023-07-10T23:04:11.742Z,1.65
2023-07-10T23:06:38.618Z,1.25
2023-07-10T23:09:05.166Z,1.40
2023-07-10T23:11:31.889Z,1.30
2023-07-10T23:13:58.384Z,1.58
2023-07-10T23:16:25.934Z,1.30
2023-07-10T23:19:02.291Z,1.40
2023-07-10T23:21:29.616Z,1.47
2023-07-10T23:23:56.461Z,1.23
2023-07-10T23:26:25.725Z,1.40
2023-07-10T23:28:52.838Z,1.25
2023-07-10T23:31:25.558Z,1.42
2023-07-10T23:33:52.757Z,1.40
2023-07-10T23:36:21.416Z,1.80
2023-07-10T23:38:48.763Z,1.50
2023-07-10T23:41:15.504Z,1.95
2023-07-10T23:43:42.586Z,2.05
2023-07-10T23:46:09.931Z,1.60
2023-07-10T23:48:37.218Z,1.45
2023-07-10T23:51:04.576Z,1.45
2023-07-10T23:53:31.752Z,1.38
2023-07-10T23:55:59.173Z,1.38
2023-07-10T23:58:26.007Z,1.40
